Startpagina
METAR-TAF:

METAR-TAF

Vliegvelden :

Sir Seretse Khama International Airport

Gaborone, Botswana

breedte: 24-13S, lengte: 025-55E, hoogte: 1005 m

Actueel weer

Dit bericht is 58 minuten geleden gemaakt, om 10:00 UTC
Temperatuur 23°C
Vochtigheid 9%
Druk 1021 hPa
Zicht 10 km of meer
geen wolken onder 1500 m en geen cumulonimbus

METAR: FBSK 251000Z /////KT CAVOK 23/M12 Q1021 NOSIG

Tijdstip: 12:58 (10:58 UTC)

Verwachting

Dit bericht is 6 uur en het 58 minuten geleden gemaakt, om 04:00 UTC
Verwachting geldig van 25 om 06 UTC tot 26 om 12 UTC
Wind 2 kt uit variabele richting
Zicht 10 km of meer
geen wolken onder 1500 m en geen cumulonimbus
Wijzigt naar
van 25 om 19 UTC tot 25 om 21 UTC
Wind 4 kt uit het westzuidwesten
Wijzigt naar
van 26 om 06 UTC tot 26 om 08 UTC
Wind 4 kt uit het noordoosten

TAF: FBSK 250400Z 2506/2612 VRB02KT CAVOK BECMG 2519/2521 24004KT BECMG 2606/2608 04004KT

Waarnemingen en weersverwachtingen van meer dan 4000 vliegvelden (METAR en TAF).

De beschikbare stations zijn de gele en rode punten op de kaart.

Ga met uw muis naar het station om de naam te zien.

Klik dan om waarnemingen en weersverwachtingen te zien.

kaart wijzigen: klik op de groene knoppen met een zwart kruis om in te zoomen, op de groene knop met een streepje om uit te zoomen of op de groene pijlen voor aangrenzende kaarten.


METAR-TAF: